Terminal Aerodrome Forecast
Issued by NWS

Home | Current Version | Previous Version | Graphics & Text | Print | Product List | Glossary On
Versions: 1 2 3 4 5 6 7 8 9 10 11 12 13 14 15 16 17 18 19 20 21 22 23 24 25 26 27 28 29 30 31
925
FTUS43 KLOT 260125 AAA
TAFMDW
TAF AMD
KMDW 260125Z 2601/2624 03008KT 3SM -SHRA BR BKN005 OVC010
      TEMPO 2601/2603 3SM -RA BR FEW005 SCT015 BKN050
     FM260500 09008KT 2SM -RADZ BR OVC003
     FM261500 14004KT 3SM -RADZ BR OVC006
     FM261900 20007KT 5SM BR VCSH BKN015 OVC024=

USA.gov is the U.S. government's official web portal to all federal, state and local government web resources and services.